Time;durP1;ratioP1;P1;durP2;ratioP2;P2;SDS_P1;SDS_P2;PMS_P1;PMS_P2;Temp;Humidity;BMP_temperature;BMP_pressure;BME280_temperature;BME280_humidity;BME280_pressure;Samples;Min_cycle;Max_cycle;Signal;HPM_P1;HPM_P2
2021/07/10 00:00:13;;;;;;;10.45;6.70;;;;;;;19.72;66.42;100910.44;1875926;76;21070;-62
2021/07/10 00:02:43;;;;;;;14.68;5.60;;;;;;;19.71;66.19;100916.73;1875816;76;21093;-62
2021/07/10 00:05:14;;;;;;;9.75;5.10;;;;;;;19.69;66.30;100912.83;1875944;76;21022;-61
2021/07/10 00:07:44;;;;;;;10.88;5.55;;;;;;;19.63;66.61;100912.81;1875935;76;21021;-61
2021/07/10 00:10:15;;;;;;;11.93;6.35;;;;;;;19.57;66.85;100913.27;1876025;76;21026;-61
2021/07/10 00:12:44;;;;;;;11.63;5.80;;;;;;;19.55;66.77;100908.53;1875999;76;21112;-61
2021/07/10 00:15:16;;;;;;;22.62;6.60;;;;;;;19.54;66.59;100913.98;1875840;76;21054;-62
2021/07/10 00:17:45;;;;;;;11.03;5.92;;;;;;;19.53;66.48;100922.48;1876027;76;21066;-61
2021/07/10 00:20:14;;;;;;;8.55;4.83;;;;;;;19.49;66.46;100924.98;1875932;75;21066;-61
2021/07/10 00:22:44;;;;;;;9.05;5.62;;;;;;;19.47;66.45;100917.58;1875920;76;21540;-61
2021/07/10 00:25:15;;;;;;;11.00;5.25;;;;;;;19.43;66.48;100917.44;1875909;76;21014;-59
2021/07/10 00:27:45;;;;;;;11.73;4.78;;;;;;;19.39;66.75;100917.30;1875965;76;21093;-61
2021/07/10 00:30:17;;;;;;;13.88;5.65;;;;;;;19.32;67.17;100914.22;1875908;76;21011;-60
2021/07/10 00:32:46;;;;;;;12.75;5.80;;;;;;;19.25;67.30;100923.14;1875886;76;21050;-60
2021/07/10 00:35:15;;;;;;;17.73;7.42;;;;;;;19.19;67.62;100922.27;1876100;76;21426;-59
2021/07/10 00:37:45;;;;;;;16.82;8.35;;;;;;;19.15;67.63;100910.11;1875918;76;21569;-59
2021/07/10 00:40:14;;;;;;;16.73;7.85;;;;;;;19.12;67.74;100915.66;1875828;76;21535;-59
2021/07/10 00:42:45;;;;;;;18.20;7.00;;;;;;;19.09;67.85;100915.91;1875887;76;21590;-59
2021/07/10 00:45:16;;;;;;;16.50;6.60;;;;;;;19.02;68.28;100910.64;1876034;76;21038;-60
2021/07/10 00:47:45;;;;;;;21.48;11.03;;;;;;;18.95;68.34;100916.88;1875921;76;21058;-60
2021/07/10 00:50:19;;;;;;;22.62;12.95;;;;;;;18.90;68.33;100906.55;1875923;76;21118;-60
2021/07/10 00:52:48;;;;;;;18.15;12.63;;;;;;;18.86;68.23;100907.70;1875734;76;21042;-61
2021/07/10 00:55:19;;;;;;;25.65;12.35;;;;;;;18.82;68.20;100908.89;1875904;75;21504;-59
2021/07/10 00:57:48;;;;;;;18.07;12.13;;;;;;;18.78;68.29;100916.72;1877648;76;21574;-60
2021/07/10 01:00:20;;;;;;;17.00;11.55;;;;;;;18.74;68.47;100921.03;1878885;76;21062;-60
2021/07/10 01:02:50;;;;;;;18.32;11.40;;;;;;;18.64;69.19;100916.34;1878748;76;21010;-60
2021/07/10 01:05:27;;;;;;;18.10;11.38;;;;;;;18.59;69.41;100910.96;1878651;76;21011;-60
2021/07/10 01:07:57;;;;;;;18.52;10.45;;;;;;;18.56;69.18;100911.20;1878745;76;21002;-60
2021/07/10 01:10:26;;;;;;;21.35;7.90;;;;;;;18.50;69.00;100909.33;1878650;76;21042;-60
2021/07/10 01:12:57;;;;;;;13.55;6.17;;;;;;;18.47;68.92;100910.02;1878638;76;21571;-60
2021/07/10 01:15:28;;;;;;;15.00;6.87;;;;;;;18.42;68.98;100912.98;1878879;76;21022;-60
2021/07/10 01:17:57;;;;;;;15.30;6.20;;;;;;;18.36;69.38;100897.42;1878542;76;21010;-60
2021/07/10 01:20:28;;;;;;;14.07;8.68;;;;;;;18.31;69.58;100895.55;1878557;76;21054;-60
2021/07/10 01:22:57;;;;;;;37.35;27.58;;;;;;;18.25;70.02;100901.31;1878628;76;21031;-60
2021/07/10 01:25:27;;;;;;;39.48;24.63;;;;;;;18.16;70.61;100897.46;1878632;76;21538;-60
2021/07/10 01:27:57;;;;;;;48.25;37.67;;;;;;;18.10;71.08;100905.89;1878601;76;21481;-60
2021/07/10 01:30:26;;;;;;;61.10;45.33;;;;;;;18.04;71.80;100898.32;1878519;76;21476;-60
2021/07/10 01:32:56;;;;;;;61.13;48.42;;;;;;;18.01;71.82;100904.69;1878786;76;21042;-60
2021/07/10 01:35:25;;;;;;;82.82;67.45;;;;;;;17.98;72.02;100908.04;1878612;76;21553;-60
2021/07/10 01:37:54;;;;;;;65.00;49.27;;;;;;;17.89;72.63;100914.83;1878609;76;21472;-60
2021/07/10 01:40:25;;;;;;;48.83;40.52;;;;;;;17.78;73.23;100912.00;1878601;76;21050;-61
2021/07/10 01:42:56;;;;;;;36.48;32.28;;;;;;;17.73;73.33;100909.66;1878565;76;21030;-60
2021/07/10 01:45:25;;;;;;;51.33;39.58;;;;;;;17.75;73.04;100915.73;1878606;76;21050;-60
2021/07/10 01:47:54;;;;;;;51.15;40.83;;;;;;;17.77;73.05;100915.64;1878615;76;21062;-60
2021/07/10 01:50:23;;;;;;;25.85;20.48;;;;;;;17.79;72.78;100924.38;1878570;76;21528;-60
2021/07/10 01:52:52;;;;;;;15.63;9.83;;;;;;;17.78;72.53;100923.98;1878542;76;21093;-61
2021/07/10 01:55:21;;;;;;;15.32;7.78;;;;;;;17.74;72.63;100922.88;1878633;76;21467;-61
2021/07/10 01:57:51;;;;;;;10.90;6.12;;;;;;;17.71;72.84;100927.55;1877936;76;21577;-60
2021/07/10 02:00:23;;;;;;;14.15;5.62;;;;;;;17.70;72.79;100922.68;1875786;76;21026;-61
2021/07/10 02:02:52;;;;;;;9.80;5.70;;;;;;;17.68;72.71;100928.59;1875862;76;21131;-61
2021/07/10 02:05:24;;;;;;;11.22;6.00;;;;;;;17.64;72.72;100925.76;1875784;76;21050;-61
2021/07/10 02:07:54;;;;;;;14.98;7.03;;;;;;;17.62;72.88;100921.50;1875727;76;21077;-62
2021/07/10 02:10:23;;;;;;;16.32;8.45;;;;;;;17.63;73.03;100924.06;1875870;76;21077;-61
2021/07/10 02:12:56;;;;;;;12.33;8.13;;;;;;;17.67;72.90;100929.56;1875786;76;21559;-61
2021/07/10 02:15:26;;;;;;;16.45;8.55;;;;;;;17.72;73.04;100930.58;1875963;76;21038;-61
2021/07/10 02:17:55;;;;;;;17.27;9.00;;;;;;;17.75;73.09;100926.39;1875823;76;21461;-61
2021/07/10 02:20:26;;;;;;;11.93;7.33;;;;;;;17.81;73.02;100919.31;1875716;76;21527;-61
2021/07/10 02:22:56;;;;;;;10.00;5.70;;;;;;;17.88;72.92;100923.80;1875806;76;21104;-61
2021/07/10 02:25:27;;;;;;;11.18;5.30;;;;;;;17.94;72.86;100914.05;1875776;76;21131;-61
2021/07/10 02:27:56;;;;;;;12.10;5.30;;;;;;;18.00;72.77;100918.98;1875926;76;21100;-61
2021/07/10 02:30:28;;;;;;;10.65;5.87;;;;;;;18.05;72.58;100898.19;1875880;76;21018;-61
2021/07/10 02:32:58;;;;;;;10.83;5.53;;;;;;;18.10;72.40;100896.07;1876005;76;21070;-61
2021/07/10 02:35:27;;;;;;;11.65;5.58;;;;;;;18.16;72.48;100903.28;1875767;76;21431;-61
2021/07/10 02:37:57;;;;;;;9.55;5.40;;;;;;;18.25;72.29;100914.64;1875780;76;21489;-63
2021/07/10 02:40:25;;;;;;;11.95;5.15;;;;;;;18.37;72.17;100906.27;1875172;76;21508;-63
2021/07/10 02:42:55;;;;;;;13.30;7.50;;;;;;;18.49;72.02;100907.60;1880960;76;21055;-62
2021/07/10 02:45:24;;;;;;;14.38;6.45;;;;;;;18.63;71.80;100907.98;1881782;76;21043;-64
2021/07/10 02:47:54;;;;;;;11.95;5.70;;;;;;;18.76;71.62;100911.98;1881420;75;21023;-62
2021/07/10 02:50:25;;;;;;;13.30;5.55;;;;;;;18.84;71.35;100910.97;1880664;75;21604;-63
2021/07/10 02:52:55;;;;;;;11.55;5.42;;;;;;;19.07;70.92;100913.80;1882619;76;21608;-62
2021/07/10 02:55:25;;;;;;;8.83;5.10;;;;;;;19.21;70.67;100916.82;1881878;76;21462;-64
2021/07/10 02:57:54;;;;;;;10.25;5.17;;;;;;;19.34;70.40;100924.79;1877501;76;21058;-63
2021/07/10 03:00:25;;;;;;;12.63;5.05;;;;;;;19.43;70.18;100928.13;1873104;76;21630;-64
2021/07/10 03:02:54;;;;;;;9.83;5.65;;;;;;;19.54;69.79;100924.66;1880346;76;21458;-62
2021/07/10 03:05:24;;;;;;;10.88;5.30;;;;;;;19.63;69.52;100919.48;1881204;76;21525;-61
2021/07/10 03:07:53;;;;;;;18.65;6.35;;;;;;;19.77;69.29;100919.84;1872991;76;21606;-62
2021/07/10 03:10:29;;;;;;;10.88;5.25;;;;;;;19.93;69.01;100924.02;1873070;76;21121;-64
2021/07/10 03:12:57;;;;;;;15.50;5.33;;;;;;;20.04;68.63;100917.37;1878179;76;21505;-62
2021/07/10 03:15:27;;;;;;;8.60;5.70;;;;;;;20.19;68.52;100918.86;1878430;75;21067;-62
2021/07/10 03:17:56;;;;;;;12.05;5.42;;;;;;;20.33;68.03;100919.14;1879388;76;21092;-62
2021/07/10 03:20:26;;;;;;;9.60;4.92;;;;;;;20.44;67.92;100925.00;1879450;75;21027;-62
2021/07/10 03:22:55;;;;;;;9.45;4.80;;;;;;;20.60;67.72;100934.00;1875961;76;21547;-64
2021/07/10 03:25:24;;;;;;;8.95;5.50;;;;;;;20.74;67.57;100927.12;1875884;76;21544;-62
2021/07/10 03:27:56;;;;;;;10.68;5.78;;;;;;;20.87;67.27;100934.19;1880595;76;21158;-63
2021/07/10 03:30:26;;;;;;;9.97;4.97;;;;;;;20.89;66.94;100936.25;1881437;76;21680;-64
2021/07/10 03:32:55;;;;;;;13.25;5.70;;;;;;;20.96;66.96;100934.30;1881561;76;21113;-62
2021/07/10 03:35:24;;;;;;;11.78;5.67;;;;;;;21.10;66.87;100925.17;1880935;76;21059;-62
2021/07/10 03:37:54;;;;;;;13.85;5.67;;;;;;;21.24;66.74;100928.55;1879118;76;21078;-62
2021/07/10 03:40:25;;;;;;;8.20;5.37;;;;;;;21.32;66.66;100930.11;1878468;76;21552;-62
2021/07/10 03:42:55;;;;;;;10.95;5.87;;;;;;;21.48;66.52;100931.93;1879223;76;21030;-62
2021/07/10 03:45:23;;;;;;;15.05;6.35;;;;;;;21.64;66.34;100929.34;1881993;76;21042;-63
2021/07/10 03:47:52;;;;;;;21.17;5.75;;;;;;;21.77;65.70;100930.02;1876570;76;21034;-65
2021/07/10 03:50:21;;;;;;;12.90;5.12;;;;;;;21.92;65.42;100930.06;1875678;76;21023;-64
2021/07/10 03:52:50;;;;;;;9.95;5.37;;;;;;;22.09;65.11;100935.84;1881751;76;21488;-61
2021/07/10 03:55:19;;;;;;;8.68;4.75;;;;;;;22.25;64.87;100924.17;1879768;76;21597;-61
2021/07/10 03:57:48;;;;;;;9.28;5.33;;;;;;;22.35;64.38;100926.47;1879082;76;21553;-61
2021/07/10 04:00:22;;;;;;;16.42;5.70;;;;;;;22.50;64.08;100927.44;1878449;76;21057;-61
2021/07/10 04:02:51;;;;;;;10.30;5.15;;;;;;;22.65;63.78;100920.77;1878256;76;21057;-61
2021/07/10 04:05:21;;;;;;;11.53;5.62;;;;;;;22.83;63.32;100921.46;1878778;76;21057;-60
2021/07/10 04:07:50;;;;;;;10.65;5.22;;;;;;;22.97;62.84;100927.81;1879630;76;21492;-61
2021/07/10 04:10:19;;;;;;;12.03;5.62;;;;;;;23.13;62.26;100927.34;1878713;76;21496;-60
2021/07/10 04:12:48;;;;;;;9.65;6.08;;;;;;;23.24;61.76;100929.04;1878787;76;21500;-60
2021/07/10 04:15:19;;;;;;;9.85;7.05;;;;;;;23.37;61.27;100928.31;1878838;76;21669;-61
2021/07/10 04:17:49;;;;;;;10.75;5.78;;;;;;;23.51;60.78;100931.92;1879273;76;21037;-61
2021/07/10 04:20:19;;;;;;;14.80;6.72;;;;;;;23.73;60.23;100927.28;1877809;76;21488;-61
2021/07/10 04:22:48;;;;;;;11.43;6.25;;;;;;;23.98;59.63;100923.22;1878094;76;21076;-60
2021/07/10 04:25:19;;;;;;;12.03;5.75;;;;;;;24.24;58.80;100926.66;1877990;76;21009;-61
2021/07/10 04:27:48;;;;;;;9.65;5.75;;;;;;;24.51;57.94;100924.52;1877680;76;21425;-61
2021/07/10 04:30:19;;;;;;;12.63;5.85;;;;;;;24.73;56.87;100922.50;1878099;76;21475;-61
2021/07/10 04:32:49;;;;;;;13.30;6.15;;;;;;;24.94;56.34;100922.28;1878483;76;21056;-60
2021/07/10 04:35:20;;;;;;;11.88;5.90;;;;;;;25.08;55.25;100923.62;1879201;76;21123;-61
2021/07/10 04:37:49;;;;;;;12.68;5.75;;;;;;;25.26;55.19;100924.53;1878875;76;21130;-60
2021/07/10 04:40:18;;;;;;;13.03;6.33;;;;;;;25.60;54.93;100927.91;1879408;76;21130;-61
2021/07/10 04:42:47;;;;;;;9.48;5.72;;;;;;;25.85;54.43;100920.91;1878767;76;21506;-60
2021/07/10 04:45:16;;;;;;;12.47;6.35;;;;;;;25.96;53.72;100926.09;1879350;76;21545;-61
2021/07/10 04:47:45;;;;;;;13.32;5.83;;;;;;;26.16;53.53;100926.76;1879700;76;21553;-60
2021/07/10 04:50:15;;;;;;;12.82;6.22;;;;;;;26.29;52.96;100917.41;1879499;76;21064;-60
2021/07/10 04:52:44;;;;;;;8.40;5.45;;;;;;;26.48;52.27;100921.23;1879044;76;21061;-60
2021/07/10 04:55:14;;;;;;;13.05;6.03;;;;;;;26.63;51.81;100922.02;1878485;76;21114;-60
2021/07/10 04:57:45;;;;;;;14.07;6.30;;;;;;;26.81;51.76;100921.45;1879095;75;21009;-61
2021/07/10 05:00:16;;;;;;;13.40;7.30;;;;;;;26.88;51.28;100922.49;1882299;76;21095;-60
2021/07/10 05:02:45;;;;;;;15.10;6.55;;;;;;;27.01;50.83;100918.50;1887396;76;21056;-60
2021/07/10 05:05:14;;;;;;;14.00;6.75;;;;;;;27.19;50.35;100923.77;1887395;75;21591;-61
2021/07/10 05:07:43;;;;;;;12.13;6.53;;;;;;;27.40;50.50;100913.91;1887425;76;21503;-60
2021/07/10 05:10:12;;;;;;;8.25;5.90;;;;;;;27.63;49.99;100908.20;1887333;75;21056;-61
2021/07/10 05:12:42;;;;;;;13.00;6.28;;;;;;;27.86;49.94;100902.13;1887270;76;21052;-59
2021/07/10 05:15:11;;;;;;;13.98;6.78;;;;;;;27.98;49.23;100908.93;1887102;76;21040;-59
2021/07/10 05:17:40;;;;;;;9.30;6.12;;;;;;;28.06;48.24;100908.91;1887282;75;21072;-59
2021/07/10 05:20:10;;;;;;;12.10;6.37;;;;;;;28.06;47.69;100912.97;1887291;76;21042;-59
2021/07/10 05:22:40;;;;;;;10.45;6.60;;;;;;;28.10;47.94;100912.96;1887015;74;21037;-59
2021/07/10 05:25:11;;;;;;;12.60;6.05;;;;;;;28.33;47.83;100910.92;1885906;76;21134;-59
2021/07/10 05:27:40;;;;;;;11.97;6.35;;;;;;;28.64;47.67;100914.24;1887423;76;21114;-59
2021/07/10 05:30:15;;;;;;;10.90;6.30;;;;;;;28.92;47.13;100911.09;1887199;76;21052;-59
2021/07/10 05:32:44;;;;;;;12.00;6.62;;;;;;;29.21;46.81;100918.61;1887279;76;21408;-59
2021/07/10 05:35:16;;;;;;;14.93;6.90;;;;;;;29.44;46.04;100910.52;1887264;76;21491;-59
2021/07/10 05:37:44;;;;;;;14.35;6.05;;;;;;;29.53;45.83;100916.22;1887637;75;21119;-59
2021/07/10 05:40:13;;;;;;;20.82;6.33;;;;;;;29.67;45.51;100909.16;1887385;76;21076;-62
2021/07/10 05:42:42;;;;;;;14.18;5.85;;;;;;;29.71;44.69;100902.85;1887157;74;21063;-62
2021/07/10 05:45:12;;;;;;;10.63;6.22;;;;;;;29.67;45.01;100904.25;1887332;76;21118;-60
2021/07/10 05:47:40;;;;;;;14.00;6.42;;;;;;;29.80;44.81;100891.77;1887384;76;21052;-60
2021/07/10 05:50:10;;;;;;;16.73;8.30;;;;;;;29.93;44.53;100893.87;1887313;76;21068;-60
2021/07/10 05:52:40;;;;;;;9.38;5.75;;;;;;;30.14;44.21;100893.70;1887258;76;21122;-60
2021/07/10 05:55:10;;;;;;;11.55;6.40;;;;;;;30.40;43.53;100884.62;1887223;76;21077;-60
2021/07/10 05:57:39;;;;;;;8.95;6.00;;;;;;;30.51;43.42;100891.46;1887352;74;21143;-60
2021/07/10 06:00:11;;;;;;;10.25;6.03;;;;;;;30.81;43.11;100886.53;1887203;75;21105;-60
2021/07/10 06:02:40;;;;;;;12.30;5.90;;;;;;;31.08;42.57;100889.93;1886925;76;21060;-62
2021/07/10 06:05:11;;;;;;;14.85;6.87;;;;;;;31.40;42.27;100886.92;1887276;76;21562;-61
2021/07/10 06:07:40;;;;;;;16.17;7.45;;;;;;;31.54;41.29;100878.73;1881583;74;21039;-63
2021/07/10 06:10:13;;;;;;;13.03;7.10;;;;;;;31.73;41.46;100878.58;1882676;76;21011;-62
2021/07/10 06:12:42;;;;;;;19.82;9.93;;;;;;;31.87;40.57;100878.19;1882369;76;21079;-60
2021/07/10 06:15:12;;;;;;;23.02;11.83;;;;;;;32.03;40.46;100869.43;1887315;76;21131;-59
2021/07/10 06:17:42;;;;;;;13.78;7.53;;;;;;;32.24;40.31;100868.02;1887243;76;21138;-60
2021/07/10 06:20:17;;;;;;;14.40;8.15;;;;;;;32.47;39.91;100871.80;1887235;76;21025;-59
2021/07/10 06:22:48;;;;;;;12.63;6.47;;;;;;;32.62;39.85;100868.98;1887477;76;21613;-60
2021/07/10 06:25:17;;;;;;;13.20;7.62;;;;;;;32.80;39.58;100873.06;1887426;76;21123;-59
2021/07/10 06:27:49;;;;;;;12.80;6.55;;;;;;;33.01;39.53;100866.62;1887379;76;21499;-60
2021/07/10 06:30:19;;;;;;;18.20;12.13;;;;;;;33.23;38.62;100875.52;1887441;74;21127;-62
2021/07/10 06:32:49;;;;;;;12.47;7.55;;;;;;;33.36;38.65;100870.09;1887410;76;21035;-59
2021/07/10 06:35:18;;;;;;;17.52;6.78;;;;;;;33.59;38.10;100872.98;1887303;74;21029;-61
2021/07/10 06:37:47;;;;;;;10.20;5.97;;;;;;;33.73;38.26;100876.57;1887542;76;21111;-60
2021/07/10 06:40:18;;;;;;;13.40;6.62;;;;;;;33.75;37.77;100879.39;1887278;76;21527;-60
2021/07/10 06:42:47;;;;;;;8.38;6.45;;;;;;;33.80;37.70;100867.32;1887253;76;21124;-60
2021/07/10 06:45:18;;;;;;;11.95;6.08;;;;;;;33.80;37.70;100867.32;1887393;76;21542;-60
2021/07/10 06:47:47;;;;;;;13.50;7.12;;;;;;;33.83;36.38;100861.45;1887350;76;21068;-60
2021/07/10 06:50:19;;;;;;;17.92;10.30;;;;;;;33.83;36.38;100861.45;1887644;76;21553;-60
2021/07/10 06:52:48;;;;;;;10.63;5.50;;;;;;;33.75;37.52;100862.17;1887087;75;21480;-60
2021/07/10 06:55:18;;;;;;;9.83;6.53;;;;;;;33.97;37.02;100862.80;1887454;76;21546;-59
2021/07/10 06:57:46;;;;;;;11.00;6.37;;;;;;;33.97;37.02;100862.80;1887247;76;21464;-60
2021/07/10 07:00:19;;;;;;;13.60;6.30;;;;;;;33.71;35.90;100860.39;1887418;76;21174;-60
2021/07/10 07:02:48;;;;;;;13.40;6.25;;;;;;;33.44;36.61;100864.45;1868211;75;21078;-60
2021/07/10 07:05:17;;;;;;;9.95;6.15;;;;;;;33.76;37.14;100859.24;1865692;77;21046;-60
2021/07/10 07:07:47;;;;;;;10.03;5.60;;;;;;;34.05;36.50;100858.50;1865640;77;21078;-60
2021/07/10 07:10:15;;;;;;;12.37;5.80;;;;;;;34.41;35.10;100858.55;1865403;76;21153;-60
2021/07/10 07:12:44;;;;;;;12.33;5.40;;;;;;;34.41;35.10;100858.55;1865632;77;21022;-60
2021/07/10 07:15:14;;;;;;;10.10;5.42;;;;;;;34.45;35.34;100852.12;1865764;76;21038;-60
2021/07/10 07:17:44;;;;;;;8.10;5.58;;;;;;;34.34;34.54;100864.02;1874209;75;21531;-60
2021/07/10 07:20:16;;;;;;;8.68;5.12;;;;;;;34.08;34.48;100862.16;1875049;76;21034;-60
2021/07/10 07:22:47;;;;;;;10.65;5.67;;;;;;;33.90;34.35;100860.59;1874785;76;21026;-61
2021/07/10 07:25:19;;;;;;;16.07;5.62;;;;;;;33.80;34.57;100861.86;1874911;75;21065;-60
2021/07/10 07:27:49;;;;;;;10.80;5.50;;;;;;;33.73;34.58;100859.66;1874965;76;21096;-60
2021/07/10 07:30:18;;;;;;;12.28;6.10;;;;;;;33.89;34.84;100841.18;1874779;76;21029;-62
2021/07/10 07:32:48;;;;;;;9.43;5.33;;;;;;;34.17;34.31;100851.34;1874749;76;21097;-61
2021/07/10 07:35:18;;;;;;;9.85;5.78;;;;;;;34.17;34.31;100851.34;1874787;75;21509;-62
2021/07/10 07:37:47;;;;;;;11.63;5.87;;;;;;;34.07;33.96;100855.53;1865669;77;21038;-61
2021/07/10 07:40:17;;;;;;;12.75;6.53;;;;;;;34.13;35.25;100856.89;1865673;77;21086;-61
2021/07/10 07:42:47;;;;;;;10.25;5.37;;;;;;;34.13;35.25;100856.89;1874722;76;21539;-61
2021/07/10 07:45:18;;;;;;;14.07;6.10;;;;;;;34.46;34.44;100849.18;1874895;76;21151;-61
2021/07/10 07:47:47;;;;;;;12.07;6.10;;;;;;;34.36;33.69;100844.67;1874530;76;21021;-62
2021/07/10 07:50:19;;;;;;;7.62;4.92;;;;;;;34.57;34.20;100851.77;1874718;76;21070;-61
2021/07/10 07:52:49;;;;;;;10.80;6.20;;;;;;;34.83;33.20;100859.05;1874973;76;21014;-61
2021/07/10 07:55:18;;;;;;;11.80;6.03;;;;;;;34.70;32.86;100849.55;1874919;76;21480;-61
2021/07/10 07:57:46;;;;;;;9.78;6.20;;;;;;;34.66;33.39;100844.15;1874742;76;21496;-61
2021/07/10 08:00:19;;;;;;;8.50;5.67;;;;;;;34.71;33.63;100847.97;1874541;76;21544;-62
2021/07/10 08:02:49;;;;;;;10.82;5.78;;;;;;;34.75;33.47;100846.98;1869890;76;21151;-61
2021/07/10 08:05:18;;;;;;;15.85;6.70;;;;;;;34.71;32.70;100849.34;1865915;77;21578;-61
2021/07/10 08:07:47;;;;;;;10.72;5.95;;;;;;;34.90;33.47;100849.46;1865963;77;21493;-61
2021/07/10 08:10:18;;;;;;;10.05;6.30;;;;;;;34.74;32.20;100848.88;1866137;77;21046;-61
2021/07/10 08:12:50;;;;;;;12.75;5.87;;;;;;;34.74;32.20;100848.88;1865849;77;21149;-61
2021/07/10 08:15:23;;;;;;;8.38;5.28;;;;;;;34.76;32.70;100847.30;1866090;77;21111;-61
2021/07/10 08:17:54;;;;;;;11.15;6.08;;;;;;;34.66;32.50;100847.74;1866018;77;21046;-61
2021/07/10 08:20:23;;;;;;;9.33;6.22;;;;;;;34.57;32.29;100846.31;1866028;77;21042;-61
2021/07/10 08:22:52;;;;;;;10.95;5.87;;;;;;;34.57;32.48;100841.67;1865946;77;21101;-61
2021/07/10 08:25:21;;;;;;;11.83;5.72;;;;;;;34.53;32.42;100841.80;1865877;77;21128;-61
2021/07/10 08:27:50;;;;;;;8.85;5.62;;;;;;;34.59;32.48;100838.19;1865929;77;21531;-62
2021/07/10 08:30:20;;;;;;;15.40;6.70;;;;;;;34.63;32.66;100839.96;1865934;77;21054;-61
2021/07/10 08:32:49;;;;;;;15.75;6.00;;;;;;;34.97;33.03;100829.21;1866025;77;21033;-61
2021/07/10 08:35:20;;;;;;;14.07;6.50;;;;;;;35.32;31.98;100822.47;1866076;77;21002;-61
2021/07/10 08:37:49;;;;;;;14.15;5.50;;;;;;;35.52;32.17;100836.02;1865875;77;21484;-62
2021/07/10 08:40:20;;;;;;;13.20;5.83;;;;;;;35.71;31.91;100834.19;1865959;77;21030;-61
2021/07/10 08:42:50;;;;;;;12.35;6.62;;;;;;;35.61;31.94;100831.94;1865927;77;21104;-61
2021/07/10 08:45:18;;;;;;;12.40;6.33;;;;;;;35.53;32.16;100832.23;1866060;77;21136;-62
2021/07/10 08:47:48;;;;;;;10.98;5.95;;;;;;;35.60;32.33;100832.16;1865858;77;21046;-62
2021/07/10 08:50:19;;;;;;;20.55;6.28;;;;;;;35.66;32.42;100834.84;1865515;77;21129;-63
2021/07/10 08:52:49;;;;;;;16.15;6.40;;;;;;;35.94;32.08;100829.46;1877221;76;21015;-61
2021/07/10 08:55:19;;;;;;;14.75;6.72;;;;;;;36.05;31.39;100827.88;1878318;76;21122;-62
2021/07/10 08:57:48;;;;;;;8.83;5.40;;;;;;;36.08;31.62;100829.64;1878017;76;21568;-61
2021/07/10 09:00:20;;;;;;;10.65;5.70;;;;;;;36.08;31.56;100825.53;1872859;76;21493;-64
2021/07/10 09:02:52;;;;;;;10.40;5.42;;;;;;;36.04;31.34;100820.20;1872748;75;21152;-62
2021/07/10 09:05:22;;;;;;;12.78;5.53;;;;;;;36.16;31.62;100816.70;1873031;76;21124;-63
2021/07/10 09:08:27;;;;;;;11.65;5.53;;;;;;;36.36;31.48;100814.60;1877940;76;21372;-63
2021/07/10 09:11:05;;;;;;;10.25;5.40;;;;;;;36.47;30.92;100816.57;1877138;76;21490;-62
2021/07/10 09:13:47;;;;;;;9.00;4.97;;;;;;;36.31;31.15;100811.70;1873023;76;21062;-62
2021/07/10 09:16:18;;;;;;;6.90;5.23;;;;;;;36.18;30.90;100809.95;1873259;76;21089;-62
2021/07/10 09:18:49;;;;;;;9.20;5.35;;;;;;;36.26;31.04;100800.58;1872930;76;21035;-62
2021/07/10 09:21:39;;;;;;;10.32;5.25;;;;;;;36.55;31.19;100791.27;1873044;76;21100;-62
2021/07/10 09:24:14;;;;;;;9.98;5.25;;;;;;;36.55;31.19;100791.27;1872864;76;21116;-62
2021/07/10 09:26:46;;;;;;;9.93;5.55;;;;;;;36.57;31.00;100799.56;1872888;76;21050;-62
2021/07/10 09:29:17;;;;;;;11.50;6.10;;;;;;;36.58;31.14;100788.91;1872805;76;21043;-61
2021/07/10 09:32:01;;;;;;;10.60;4.47;;;;;;;36.51;31.35;100793.09;1872980;76;21152;-63
2021/07/10 09:34:35;;;;;;;11.48;4.75;;;;;;;36.64;31.50;100788.52;1872286;76;21128;-61
2021/07/10 09:37:05;;;;;;;6.22;4.28;;;;;;;36.70;30.60;100791.72;1872863;76;21066;-61
2021/07/10 09:39:40;;;;;;;11.60;5.12;;;;;;;36.44;29.76;100781.38;1872957;76;21461;-62
2021/07/10 09:42:09;;;;;;;9.05;5.33;;;;;;;36.21;30.04;100778.49;1872776;76;21042;-62
2021/07/10 09:44:49;;;;;;;7.83;4.60;;;;;;;36.07;30.35;100770.41;1872844;76;21537;-62
2021/07/10 09:47:20;;;;;;;10.10;5.00;;;;;;;35.97;30.21;100773.36;1832644;76;21063;-62
2021/07/10 09:49:49;;;;;;;7.37;4.33;;;;;;;35.95;31.02;100769.51;1872945;76;21517;-62
2021/07/10 09:52:20;;;;;;;7.35;5.00;;;;;;;36.13;30.97;100772.25;1873086;76;21038;-62
2021/07/10 09:54:58;;;;;;;8.80;5.25;;;;;;;36.10;30.56;100767.22;1872900;76;21010;-63
2021/07/10 09:57:34;;;;;;;8.63;5.20;;;;;;;36.09;30.18;100769.64;1872870;76;21540;-61
2021/07/10 10:00:06;;;;;;;10.03;5.58;;;;;;;36.11;30.69;100763.94;1872883;76;21042;-62
2021/07/10 10:02:37;;;;;;;10.18;4.95;;;;;;;36.02;30.54;100759.83;1870516;76;21458;-62
2021/07/10 10:05:09;;;;;;;9.55;5.03;;;;;;;35.94;30.98;100760.97;1869765;76;21113;-64
2021/07/10 10:07:47;;;;;;;9.13;5.22;;;;;;;35.84;30.77;100757.39;1870647;76;21050;-62
2021/07/10 10:10:33;;;;;;;10.50;5.12;;;;;;;35.68;30.46;100750.56;1870788;76;21148;-62
2021/07/10 10:13:10;;;;;;;10.82;6.37;;;;;;;35.57;30.99;100748.56;1870239;77;21148;-62
2021/07/10 10:15:45;;;;;;;10.53;5.70;;;;;;;35.52;31.62;100747.03;1870544;76;21074;-63
2021/07/10 10:18:17;;;;;;;13.62;5.00;;;;;;;35.62;31.56;100751.47;1870378;76;21514;-62
2021/07/10 10:20:47;;;;;;;10.60;4.42;;;;;;;35.53;30.60;100747.35;1870425;76;21121;-62
2021/07/10 10:23:17;;;;;;;11.48;4.65;;;;;;;35.52;30.54;100745.66;1870685;76;21108;-62
2021/07/10 10:25:46;;;;;;;10.58;4.72;;;;;;;35.38;30.01;100744.96;1870264;76;21481;-62
2021/07/10 10:28:20;;;;;;;11.53;4.20;;;;;;;35.37;30.42;100738.63;1870474;76;21563;-62
2021/07/10 10:30:51;;;;;;;7.75;3.02;;;;;;;35.38;28.91;100743.05;1870494;76;21007;-62
2021/07/10 10:33:21;;;;;;;8.20;3.47;;;;;;;35.15;26.86;100742.79;1870529;76;21031;-62
2021/07/10 10:35:53;;;;;;;12.15;5.33;;;;;;;34.86;27.00;100732.81;1870850;75;21096;-64
2021/07/10 10:38:23;;;;;;;9.83;4.80;;;;;;;34.86;27.00;100732.81;1882179;76;21031;-64
2021/07/10 10:40:54;;;;;;;6.65;4.67;;;;;;;34.85;28.03;100722.91;1881145;76;21548;-63
2021/07/10 10:43:25;;;;;;;10.25;4.17;;;;;;;34.85;28.03;100722.91;1870320;76;21027;-63
2021/07/10 10:45:54;;;;;;;6.40;3.60;;;;;;;34.90;26.98;100721.73;1875841;76;21031;-63
2021/07/10 10:48:38;;;;;;;5.28;2.98;;;;;;;34.56;25.97;100721.05;1870286;76;21551;-63
2021/07/10 10:51:27;;;;;;;6.97;3.67;;;;;;;34.23;25.27;100724.81;1848672;77;21086;-63
2021/07/10 10:54:15;;;;;;;8.63;4.30;;;;;;;34.23;25.27;100724.81;1870547;76;21011;-66
2021/07/10 10:56:44;;;;;;;6.87;3.33;;;;;;;33.95;25.92;100719.61;1869996;77;21088;-65
2021/07/10 10:59:35;;;;;;;7.75;3.83;;;;;;;33.78;25.77;100721.97;1870690;76;21027;-65
2021/07/10 11:02:06;;;;;;;10.63;3.55;;;;;;;33.70;26.77;100723.58;1871476;76;21120;-64
2021/07/10 11:04:55;;;;;;;7.70;3.50;;;;;;;33.58;26.60;100721.14;1872786;76;21584;-65
2021/07/10 11:07:32;;;;;;;8.90;4.22;;;;;;;33.50;27.09;100724.94;1872844;76;21054;-65
2021/07/10 11:10:07;;;;;;;9.58;4.45;;;;;;;33.41;27.04;100715.30;1872846;75;21110;-65
2021/07/10 11:12:51;;;;;;;6.53;3.33;;;;;;;33.42;27.96;100720.55;1873509;76;21035;-65
2021/07/10 11:15:31;;;;;;;8.18;3.33;;;;;;;33.43;27.43;100711.29;1873047;76;21124;-65
2021/07/10 11:18:02;;;;;;;5.95;2.83;;;;;;;33.39;27.15;100713.30;1873423;76;21199;-66
2021/07/10 11:20:46;;;;;;;8.35;3.35;;;;;;;33.28;26.50;100710.68;1873065;76;21082;-65
2021/07/10 11:23:32;;;;;;;6.60;3.67;;;;;;;33.23;26.68;100705.84;1873684;76;21071;-65
2021/07/10 11:26:17;;;;;;;5.37;3.60;;;;;;;33.15;26.46;100711.52;1873013;76;21054;-64
2021/07/10 11:28:51;;;;;;;5.70;3.35;;;;;;;33.07;26.20;100700.77;1873410;76;21112;-65
2021/07/10 11:31:22;;;;;;;6.25;2.83;;;;;;;33.00;26.79;100702.68;1873062;76;21038;-64
2021/07/10 11:34:00;;;;;;;9.07;3.20;;;;;;;32.99;27.06;100703.18;1873044;76;21035;-62
2021/07/10 11:36:49;;;;;;;5.17;2.95;;;;;;;32.95;26.15;100697.84;1873408;76;21096;-63